createdAt,value
2019-04-26T00:03:16.250Z,13.32
2019-04-26T00:08:17.976Z,13.35
2019-04-26T00:13:20.244Z,13.45
2019-04-26T00:18:22.710Z,13.31
2019-04-26T00:23:25.171Z,13.05
2019-04-26T00:28:27.642Z,12.71
2019-04-26T00:33:30.104Z,12.65
2019-04-26T00:38:32.559Z,12.62
2019-04-26T00:43:35.015Z,12.41
2019-04-26T00:48:37.468Z,12.36
2019-04-26T00:53:39.940Z,12.35
2019-04-26T00:58:42.413Z,12.15
2019-04-26T01:03:44.873Z,12.07
2019-04-26T01:08:47.340Z,11.86
2019-04-26T01:13:49.814Z,11.67
2019-04-26T01:18:52.270Z,11.75
2019-04-26T01:23:54.719Z,11.68
2019-04-26T01:29:06.240Z,11.58
2019-04-26T01:34:08.700Z,11.45
2019-04-26T01:39:17.146Z,11.32
2019-04-26T01:44:20.199Z,11.27
2019-04-26T01:49:22.343Z,11.31
2019-04-26T01:54:25.695Z,11.38
2019-04-26T01:59:27.428Z,11.21
2019-04-26T02:04:29.919Z,11.12
2019-04-26T02:09:32.764Z,11.08
2019-04-26T02:14:34.333Z,11.00
2019-04-26T02:19:36.786Z,11.01
2019-04-26T02:24:39.241Z,10.94
2019-04-26T02:29:41.699Z,11.01
2019-04-26T02:34:44.141Z,11.09
2019-04-26T02:39:46.603Z,11.29
2019-04-26T02:44:49.058Z,11.68
2019-04-26T02:49:51.518Z,11.80
2019-04-26T02:54:56.659Z,11.71
2019-04-26T02:59:59.109Z,11.82
2019-04-26T03:05:01.570Z,11.80
2019-04-26T03:10:04.034Z,11.79
2019-04-26T03:15:24.770Z,11.77
2019-04-26T03:20:32.566Z,11.84
2019-04-26T03:25:33.336Z,12.25
2019-04-26T03:30:51.328Z,12.10
2019-04-26T03:35:57.172Z,12.03
2019-04-26T03:40:58.352Z,12.18
2019-04-26T03:46:22.490Z,12.33
2019-04-26T03:51:41.227Z,12.57
2019-04-26T03:56:45.489Z,12.43
2019-04-26T04:01:53.573Z,12.60
2019-04-26T04:07:03.823Z,12.77
2019-04-26T04:12:11.295Z,12.75
2019-04-26T04:17:03.692Z,12.80
2019-04-26T04:22:14.921Z,12.99
2019-04-26T04:27:23.428Z,12.84
2019-04-26T04:32:25.899Z,12.98
2019-04-26T04:37:28.349Z,13.09
2019-04-26T04:42:50.336Z,13.10
2019-04-26T04:48:21.523Z,13.19
2019-04-26T04:53:49.591Z,13.15
2019-04-26T04:58:50.592Z,13.23
2019-04-26T05:04:14.390Z,13.38
2019-04-26T05:09:28.915Z,13.31
2019-04-26T05:14:34.327Z,13.38
2019-04-26T05:19:48.852Z,13.32
2019-04-26T05:25:06.432Z,13.31
2019-04-26T05:30:08.909Z,13.46
2019-04-26T05:35:14.230Z,13.47
2019-04-26T05:40:38.331Z,13.45
2019-04-26T05:45:40.788Z,13.43
2019-04-26T05:51:07.413Z,13.56
2019-04-26T05:56:46.492Z,13.56
2019-04-26T06:02:01.092Z,13.52
2019-04-26T06:07:29.663Z,13.56
2019-04-26T06:12:44.056Z,13.66
2019-04-26T06:18:04.197Z,13.72
2019-04-26T06:23:12.582Z,13.92
2019-04-26T06:28:15.034Z,14.31
2019-04-26T06:33:29.733Z,14.38
2019-04-26T06:38:50.399Z,14.24
2019-04-26T06:44:05.131Z,14.52
2019-04-26T06:49:10.691Z,14.67
2019-04-26T06:54:31.110Z,14.66
2019-04-26T06:59:51.705Z,14.63
2019-04-26T07:05:06.976Z,14.49
2019-04-26T07:10:17.357Z,14.59
2019-04-26T07:15:32.147Z,14.80
2019-04-26T07:20:34.725Z,14.91
2019-04-26T07:25:55.475Z,14.92
2019-04-26T07:31:08.237Z,14.48
2019-04-26T07:36:30.772Z,14.07
2019-04-26T07:41:57.402Z,14.30
2019-04-26T07:47:05.942Z,14.35
2019-04-26T07:52:26.189Z,14.67
2019-04-26T07:58:03.622Z,14.54
2019-04-26T08:03:13.586Z,14.53
2019-04-26T08:08:18.721Z,14.45
2019-04-26T08:13:21.178Z,14.65
2019-04-26T08:18:23.654Z,15.04
2019-04-26T08:23:38.478Z,15.30
2019-04-26T08:28:28.575Z,15.34
2019-04-26T08:33:31.031Z,15.23
2019-04-26T08:38:33.493Z,15.15
2019-04-26T08:43:48.260Z,15.04
2019-04-26T08:48:53.597Z,15.22
2019-04-26T08:53:56.063Z,15.11
2019-04-26T08:58:58.512Z,15.29
2019-04-26T09:04:00.987Z,15.73
2019-04-26T09:09:03.454Z,15.84
2019-04-26T09:14:05.911Z,15.63
2019-04-26T09:19:08.375Z,15.86
2019-04-26T09:24:10.833Z,15.82
2019-04-26T09:29:16.176Z,15.51
2019-04-26T09:34:18.622Z,15.03
2019-04-26T09:39:21.167Z,14.94
2019-04-26T09:44:23.611Z,14.75
2019-04-26T09:49:28.964Z,14.95
2019-04-26T09:54:31.422Z,15.31
2019-04-26T09:59:36.325Z,15.50
2019-04-26T10:04:36.355Z,15.65
2019-04-26T10:09:38.830Z,16.30
2019-04-26T10:14:41.290Z,16.82
2019-04-26T10:19:43.734Z,17.75
2019-04-26T10:24:46.189Z,18.08
2019-04-26T10:29:48.675Z,17.83
2019-04-26T10:34:51.134Z,17.24
2019-04-26T10:39:53.596Z,17.29
2019-04-26T10:44:56.067Z,17.40
2019-04-26T10:49:59.308Z,17.65
2019-04-26T10:55:19.284Z,18.35
2019-04-26T11:00:21.762Z,18.51
2019-04-26T11:05:24.220Z,18.40
2019-04-26T11:10:26.693Z,17.76
2019-04-26T11:15:32.609Z,17.91
2019-04-26T11:20:31.720Z,17.04
2019-04-26T11:25:34.192Z,16.69
2019-04-26T11:30:36.648Z,16.72
2019-04-26T11:35:46.152Z,17.12
2019-04-26T11:41:04.892Z,16.24
2019-04-26T11:45:51.108Z,16.45
2019-04-26T11:50:53.717Z,16.63
2019-04-26T11:55:56.035Z,16.26
2019-04-26T12:00:58.480Z,16.29
2019-04-26T12:06:03.867Z,16.15
2019-04-26T12:11:17.772Z,16.55
2019-04-26T12:16:09.987Z,16.32
2019-04-26T12:21:11.271Z,16.68
2019-04-26T12:26:17.375Z,17.35
2019-04-26T12:31:16.190Z,17.45
2019-04-26T12:36:18.649Z,17.83
2019-04-26T12:41:39.243Z,19.01
2019-04-26T12:46:27.144Z,20.01
2019-04-26T12:51:29.091Z,19.17
2019-04-26T12:56:32.805Z,17.82
2019-04-26T13:01:34.009Z,16.95
2019-04-26T13:06:54.877Z,16.34
2019-04-26T13:12:03.364Z,16.45
2019-04-26T13:17:06.251Z,16.95
2019-04-26T13:22:12.594Z,17.33
2019-04-26T13:27:12.356Z,17.34
2019-04-26T13:32:13.685Z,16.95
2019-04-26T13:37:16.162Z,16.64
2019-04-26T13:42:18.744Z,16.56
2019-04-26T13:47:21.089Z,16.87
2019-04-26T13:52:23.558Z,17.62
2019-04-26T13:57:26.011Z,18.47
2019-04-26T14:02:28.492Z,18.24
2019-04-26T14:07:30.954Z,17.76
2019-04-26T14:12:33.399Z,17.30
2019-04-26T14:17:35.883Z,17.22
2019-04-26T14:22:53.203Z,17.09
2019-04-26T14:27:55.686Z,17.26
2019-04-26T14:32:58.882Z,17.34
2019-04-26T14:38:00.623Z,17.14
2019-04-26T14:43:06.953Z,17.24
2019-04-26T14:48:05.614Z,17.00
2019-04-26T14:53:08.008Z,16.74
2019-04-26T14:58:12.179Z,16.76
2019-04-26T15:03:12.925Z,16.78
2019-04-26T15:08:15.401Z,16.42
2019-04-26T15:13:20.777Z,16.35
2019-04-26T15:18:20.309Z,16.56
2019-04-26T15:23:25.202Z,16.99
2019-04-26T15:28:25.276Z,17.46
2019-04-26T15:33:27.744Z,17.24
2019-04-26T15:38:34.862Z,17.12
2019-04-26T15:43:42.837Z,17.02
2019-04-26T15:48:56.172Z,17.26
2019-04-26T15:53:58.636Z,17.18
2019-04-26T15:59:02.536Z,16.71
2019-04-26T16:04:06.370Z,16.61
2019-04-26T16:09:06.017Z,16.38
2019-04-26T16:14:08.485Z,16.10
2019-04-26T16:19:10.934Z,15.96
2019-04-26T16:24:13.521Z,15.79
2019-04-26T16:29:18.290Z,15.80
2019-04-26T16:34:21.387Z,15.71
2019-04-26T16:39:28.444Z,15.62
2019-04-26T16:44:29.936Z,15.68
2019-04-26T16:49:28.866Z,15.67
2019-04-26T16:54:33.559Z,15.67
2019-04-26T16:59:33.818Z,15.71
2019-04-26T17:04:37.178Z,15.62
2019-04-26T17:09:56.966Z,15.45
2019-04-26T17:14:47.744Z,15.30
2019-04-26T17:19:44.536Z,15.14
2019-04-26T17:24:49.517Z,15.18
2019-04-26T17:29:52.694Z,14.94
2019-04-26T17:34:54.702Z,14.81
2019-04-26T17:39:56.987Z,14.69
2019-04-26T17:45:03.818Z,14.55
2019-04-26T17:50:06.169Z,14.61
2019-04-26T17:55:07.816Z,14.36
2019-04-26T18:00:09.880Z,14.18
2019-04-26T18:05:10.854Z,14.22
2019-04-26T18:10:11.981Z,13.93
2019-04-26T18:15:19.139Z,13.77
2019-04-26T18:20:33.530Z,13.56
2019-04-26T18:25:34.547Z,13.46
2019-04-26T18:30:40.404Z,13.39
2019-04-26T18:35:41.805Z,13.42
2019-04-26T18:40:57.130Z,13.51
2019-04-26T18:45:44.537Z,13.48
2019-04-26T18:50:46.937Z,13.53
2019-04-26T18:55:53.517Z,13.38
2019-04-26T19:00:57.357Z,13.40
2019-04-26T19:05:58.441Z,13.38
2019-04-26T19:11:03.074Z,13.25
2019-04-26T19:16:10.584Z,13.18
2019-04-26T19:21:32.347Z,13.25
2019-04-26T19:26:34.896Z,13.14
2019-04-26T19:31:33.644Z,12.95
2019-04-26T19:36:36.123Z,12.95
2019-04-26T19:41:38.634Z,12.94
2019-04-26T19:46:44.347Z,12.83
2019-04-26T19:52:03.758Z,12.80
2019-04-26T19:57:06.995Z,12.73
2019-04-26T20:02:09.487Z,12.74
2019-04-26T20:07:11.979Z,12.63
2019-04-26T20:12:14.486Z,12.53
2019-04-26T20:17:20.059Z,12.39
2019-04-26T20:22:22.131Z,12.31
2019-04-26T20:27:25.241Z,12.25
2019-04-26T20:32:29.976Z,12.18
2019-04-26T20:37:32.474Z,12.10
2019-04-26T20:42:34.952Z,12.00
2019-04-26T20:47:37.440Z,11.90
2019-04-26T20:52:41.434Z,11.78
2019-04-26T20:57:44.594Z,11.76
2019-04-26T21:02:44.916Z,11.70
2019-04-26T21:07:49.864Z,11.83
2019-04-26T21:12:52.157Z,11.81
2019-04-26T21:17:52.402Z,11.59
2019-04-26T21:22:57.693Z,11.43
2019-04-26T21:28:07.916Z,11.61
2019-04-26T21:33:13.010Z,11.65
2019-04-26T21:38:33.362Z,11.73
2019-04-26T21:43:38.274Z,11.65
2019-04-26T21:48:41.283Z,11.62
2019-04-26T21:53:42.193Z,11.61
2019-04-26T21:58:43.595Z,11.55
2019-04-26T22:03:53.614Z,11.53
2019-04-26T22:08:47.439Z,11.48
2019-04-26T22:13:59.106Z,11.38
2019-04-26T22:19:01.608Z,11.45
2019-04-26T22:24:23.337Z,11.32
2019-04-26T22:29:24.847Z,11.31
2019-04-26T22:34:27.321Z,11.36
2019-04-26T22:39:32.559Z,11.38
2019-04-26T22:44:44.365Z,11.58
2019-04-26T22:49:46.842Z,11.40
2019-04-26T22:54:49.322Z,11.41
2019-04-26T22:59:53.540Z,11.41
2019-04-26T23:04:55.895Z,11.43
2019-04-26T23:09:56.726Z,11.27
2019-04-26T23:15:17.098Z,11.32
2019-04-26T23:20:23.358Z,11.22
2019-04-26T23:25:27.787Z,11.18
2019-04-26T23:30:27.687Z,11.09
2019-04-26T23:35:29.960Z,10.99
2019-04-26T23:40:33.439Z,11.02
2019-04-26T23:45:34.868Z,10.85
2019-04-26T23:50:37.336Z,10.80
2019-04-26T23:55:42.540Z,10.69
